Time;durP1;ratioP1;P1;durP2;ratioP2;P2;SDS_P1;SDS_P2;PMS_P1;PMS_P2;Temp;Humidity;BMP_temperature;BMP_pressure;BME280_temperature;BME280_humidity;BME280_pressure;Samples;Min_cycle;Max_cycle;Signal;HPM_P1;HPM_P2
2023/12/29 00:01:09;;;;;;;22.63;19.55;;;11.40;96.70;;;;;;4870169;29;20079;-71
2023/12/29 00:03:37;;;;;;;24.17;20.05;;;11.40;96.70;;;;;;4854895;29;20084;-71
2023/12/29 00:06:06;;;;;;;21.95;17.73;;;11.40;96.70;;;;;;4870548;29;20811;-72
2023/12/29 00:08:37;;;;;;;25.63;19.73;;;11.40;96.70;;;;;;4870636;29;20061;-71
2023/12/29 00:11:05;;;;;;;21.15;17.77;;;11.40;96.70;;;;;;4870204;29;20743;-71
2023/12/29 00:13:33;;;;;;;25.35;19.35;;;11.40;96.70;;;;;;4854773;29;20057;-72
2023/12/29 00:16:03;;;;;;;20.75;17.60;;;11.40;96.70;;;;;;4870501;29;20064;-72
2023/12/29 00:18:32;;;;;;;20.48;18.20;;;11.50;96.70;;;;;;4870185;29;20065;-72
2023/12/29 00:21:04;;;;;;;24.35;19.85;;;11.50;96.70;;;;;;4855082;29;20120;-72
2023/12/29 00:23:36;;;;;;;25.63;20.10;;;11.40;96.70;;;;;;4854416;29;20805;-71
2023/12/29 00:26:05;;;;;;;23.77;19.98;;;11.40;96.70;;;;;;4864630;29;20072;-71
2023/12/29 00:28:35;;;;;;;22.83;19.83;;;11.30;96.70;;;;;;4868779;29;20110;-71
2023/12/29 00:31:06;;;;;;;25.15;20.45;;;11.30;96.70;;;;;;4854757;29;20068;-71
2023/12/29 00:33:34;;;;;;;23.95;20.25;;;11.30;96.70;;;;;;4852775;29;20144;-71
2023/12/29 00:36:04;;;;;;;22.83;18.42;;;11.30;96.70;;;;;;4854329;29;20061;-72
2023/12/29 00:38:33;;;;;;;22.05;18.80;;;11.30;96.70;;;;;;4869818;29;20108;-71
2023/12/29 00:41:03;;;;;;;22.80;18.98;;;11.30;96.70;;;;;;4854470;29;20060;-72
2023/12/29 00:43:32;;;;;;;22.38;18.73;;;11.20;96.70;;;;;;4870202;29;20798;-72
2023/12/29 00:46:02;;;;;;;23.80;19.60;;;11.20;96.70;;;;;;4858499;29;20071;-71
2023/12/29 00:48:34;;;;;;;21.13;17.85;;;11.20;96.70;;;;;;4856056;29;20076;-71
2023/12/29 00:51:04;;;;;;;22.02;18.90;;;11.20;96.70;;;;;;4863054;29;20075;-71
2023/12/29 00:53:36;;;;;;;22.20;18.08;;;11.10;96.70;;;;;;4854863;29;20069;-71
2023/12/29 00:56:10;;;;;;;20.45;17.42;;;11.10;96.70;;;;;;4856548;29;20061;-72
2023/12/29 00:58:39;;;;;;;22.85;18.80;;;11.10;96.70;;;;;;4866941;29;20064;-71
2023/12/29 01:01:11;;;;;;;21.48;19.05;;;11.10;96.70;;;;;;4869951;29;20068;-71
2023/12/29 01:03:41;;;;;;;23.27;19.98;;;11.10;96.70;;;;;;4857474;29;20053;-71
2023/12/29 01:06:10;;;;;;;21.75;18.80;;;11.20;96.70;;;;;;4870911;29;20089;-71
2023/12/29 01:08:41;;;;;;;21.42;19.00;;;11.20;96.70;;;;;;4861792;29;20061;-72
2023/12/29 01:11:10;;;;;;;23.80;19.65;;;11.20;96.70;;;;;;4874926;29;20056;-72
2023/12/29 01:13:38;;;;;;;24.65;20.33;;;11.30;96.70;;;;;;4866125;29;20117;-71
2023/12/29 01:16:07;;;;;;;24.60;20.15;;;11.30;96.70;;;;;;4874603;29;20087;-72
2023/12/29 01:18:36;;;;;;;25.50;20.55;;;11.30;96.70;;;;;;4849295;29;20418;-72
2023/12/29 01:21:09;;;;;;;24.83;19.95;;;11.30;96.70;;;;;;4873795;29;20426;-71
2023/12/29 01:23:39;;;;;;;22.85;19.98;;;11.30;96.70;;;;;;4878871;29;20148;-71
2023/12/29 01:26:08;;;;;;;25.25;21.05;;;11.30;96.70;;;;;;4864877;29;20064;-72
2023/12/29 01:28:37;;;;;;;28.73;21.88;;;11.30;96.70;;;;;;4866869;29;20057;-71
2023/12/29 01:31:08;;;;;;;23.92;19.70;;;11.30;96.70;;;;;;4874971;29;20860;-71
2023/12/29 01:33:37;;;;;;;22.77;19.40;;;11.30;96.70;;;;;;4872564;29;20080;-71
2023/12/29 01:36:06;;;;;;;22.35;18.75;;;11.30;96.70;;;;;;4866932;29;20080;-72
2023/12/29 01:38:47;;;;;;;23.67;20.65;;;11.30;96.70;;;;;;4850349;29;20065;-71
2023/12/29 01:41:19;;;;;;;22.60;18.95;;;11.30;96.70;;;;;;4863109;29;20121;-71
2023/12/29 01:44:18;;;;;;;23.67;19.73;;;11.30;96.70;;;;;;4864954;29;20061;-71
2023/12/29 01:46:48;;;;;;;22.48;18.50;;;11.30;96.70;;;;;;4857757;29;20061;-72
2023/12/29 01:49:18;;;;;;;22.02;18.52;;;11.30;96.70;;;;;;4873472;29;20600;-71
2023/12/29 01:51:57;;;;;;;21.45;17.08;;;11.30;96.70;;;;;;4859334;29;20502;-71
2023/12/29 01:54:31;;;;;;;20.33;17.23;;;11.40;96.70;;;;;;4867222;29;20052;-72
2023/12/29 01:57:02;;;;;;;21.77;17.80;;;11.30;96.70;;;;;;4847598;29;20056;-71
2023/12/29 01:59:33;;;;;;;21.85;19.10;;;11.30;96.70;;;;;;4858558;29;20061;-71
2023/12/29 02:02:03;;;;;;;22.88;19.75;;;11.30;96.70;;;;;;4863660;29;20150;-71
2023/12/29 02:04:31;;;;;;;24.05;19.70;;;11.30;96.70;;;;;;4853598;29;20053;-71
2023/12/29 02:07:03;;;;;;;20.73;18.42;;;11.30;96.70;;;;;;4848830;29;20563;-70
2023/12/29 02:09:54;;;;;;;21.67;18.15;;;11.30;96.70;;;;;;4855602;29;20770;-70
2023/12/29 02:12:22;;;;;;;21.60;18.02;;;11.30;96.70;;;;;;4858619;29;20065;-70
2023/12/29 02:14:51;;;;;;;22.30;17.85;;;11.30;96.70;;;;;;4865322;29;20645;-70
2023/12/29 02:17:26;;;;;;;24.77;18.65;;;11.30;96.70;;;;;;4848260;29;20445;-70
2023/12/29 02:20:33;;;;;;;;;;;;;;;;;;;;;
2023/12/29 02:24:19;;;;;;;20.17;18.10;;;11.30;96.70;;;;;;4787724;29;20073;-69
2023/12/29 02:28:15;;;;;;;18.58;16.58;;;11.30;96.70;;;;;;4773400;29;20115;-69
2023/12/29 02:30:48;;;;;;;;;;;11.30;96.70;;;;;;4773702;29;20062;-69
2023/12/29 02:33:21;;;;;;;19.77;16.23;;;11.30;96.70;;;;;;4807215;29;20460;-69
2023/12/29 02:36:00;;;;;;;22.13;17.10;;;11.30;96.70;;;;;;4807838;29;20626;-70
2023/12/29 02:38:32;;;;;;;18.15;16.27;;;11.30;96.70;;;;;;4814266;29;20062;-69
2023/12/29 02:41:27;;;;;;;20.65;15.48;;;11.30;96.70;;;;;;4790261;29;20350;-69
2023/12/29 02:44:03;;;;;;;21.60;16.08;;;11.20;96.70;;;;;;4802418;29;20149;-70
2023/12/29 02:47:00;;;;;;;21.40;18.13;;;11.20;96.70;;;;;;4797145;29;20066;-70
2023/12/29 02:49:29;;;;;;;22.17;16.35;;;11.20;96.70;;;;;;4814064;29;20583;-70
2023/12/29 02:51:58;;;;;;;20.42;18.10;;;11.20;96.70;;;;;;4792635;29;20062;-70
2023/12/29 02:55:37;;;;;;;23.02;18.08;;;11.20;96.70;;;;;;4793682;29;20065;-69
2023/12/29 02:58:26;;;;;;;21.08;17.55;;;11.20;96.70;;;;;;4776134;29;20062;-69
2023/12/29 03:00:57;;;;;;;20.55;17.35;;;11.20;96.70;;;;;;4841707;29;20121;-69
2023/12/29 03:03:25;;;;;;;22.25;17.35;;;11.20;96.70;;;;;;4873744;29;20083;-69
2023/12/29 03:14:47;;;;;;;19.63;16.25;;;11.20;96.70;;;;;;4776376;29;20062;-69
2023/12/29 03:17:23;;;;;;;16.77;14.43;;;11.20;96.70;;;;;;4834027;29;20064;-69
2023/12/29 03:19:53;;;;;;;16.88;14.35;;;11.20;96.70;;;;;;4874961;29;20522;-70
2023/12/29 03:22:25;;;;;;;19.38;15.80;;;11.20;96.70;;;;;;4874735;29;20136;-69
2023/12/29 03:26:08;;;;;;;17.02;14.60;;;11.20;96.70;;;;;;4890483;29;20136;-69
2023/12/29 03:29:05;;;;;;;17.45;14.18;;;11.20;96.70;;;;;;4866089;29;20647;-69
2023/12/29 03:31:38;;;;;;;19.15;15.48;;;11.20;96.70;;;;;;4874603;29;20068;-69
2023/12/29 03:34:09;;;;;;;15.75;14.10;;;11.20;96.70;;;;;;4890205;29;20071;-70
2023/12/29 03:37:59;;;;;;;17.70;15.25;;;11.20;96.70;;;;;;4823626;29;20185;-69
2023/12/29 03:40:35;;;;;;;17.83;15.07;;;11.20;96.70;;;;;;4885797;29;20139;-69
2023/12/29 03:43:07;;;;;;;18.30;14.32;;;11.20;96.70;;;;;;4873901;29;20080;-69
2023/12/29 03:45:36;;;;;;;18.92;15.48;;;11.20;96.70;;;;;;4881414;29;20078;-69
2023/12/29 03:48:06;;;;;;;19.05;15.70;;;11.20;96.70;;;;;;4877643;29;20060;-69
2023/12/29 03:50:49;;;;;;;19.92;16.48;;;11.20;96.70;;;;;;4874468;29;20153;-69
2023/12/29 03:53:19;;;;;;;17.75;15.85;;;11.20;96.70;;;;;;4872158;29;20113;-69
2023/12/29 03:55:52;;;;;;;18.15;16.10;;;11.10;96.70;;;;;;4903362;29;20071;-69
2023/12/29 03:58:22;;;;;;;18.83;16.27;;;11.10;96.70;;;;;;4873937;29;20113;-69
2023/12/29 04:00:51;;;;;;;19.23;16.17;;;11.10;96.70;;;;;;4873941;29;20100;-69
2023/12/29 04:03:23;;;;;;;19.10;15.93;;;11.10;96.70;;;;;;4858214;29;20112;-69
2023/12/29 04:07:42;;;;;;;;;;;;;;;;;;;;;
2023/12/29 04:09:39;;;;;;;19.92;16.17;;;11.20;96.70;;;;;;4863968;29;20080;-69
2023/12/29 04:12:19;;;;;;;18.67;15.65;;;11.10;96.70;;;;;;4874681;29;20056;-69
2023/12/29 04:14:49;;;;;;;18.80;15.97;;;11.10;96.70;;;;;;4906299;29;20068;-69
2023/12/29 04:18:11;;;;;;;16.48;14.55;;;11.10;96.70;;;;;;4865913;29;20156;-69
2023/12/29 04:21:08;;;;;;;17.67;15.18;;;11.20;96.70;;;;;;4871867;29;20052;-69
2023/12/29 04:24:30;;;;;;;19.33;16.08;;;11.20;96.70;;;;;;4870883;29;20092;-70
2023/12/29 04:27:45;;;;;;;18.42;15.93;;;11.10;96.70;;;;;;4847086;29;20068;-69
2023/12/29 04:30:17;;;;;;;19.67;16.10;;;11.20;96.70;;;;;;4821857;29;20069;-68
2023/12/29 04:32:52;;;;;;;19.10;15.68;;;11.10;96.70;;;;;;4874599;29;20064;-69
2023/12/29 04:35:24;;;;;;;16.35;14.15;;;11.10;96.70;;;;;;4873422;29;20618;-69
2023/12/29 04:37:54;;;;;;;15.05;13.43;;;11.10;96.70;;;;;;4873875;29;20152;-69
2023/12/29 04:40:27;;;;;;;16.30;13.70;;;11.10;96.70;;;;;;4861565;29;20053;-68
2023/12/29 04:42:56;;;;;;;15.90;14.02;;;11.20;96.70;;;;;;4877290;29;20048;-69
2023/12/29 04:49:37;;;;;;;14.40;12.32;;;11.10;96.70;;;;;;4873661;29;20055;-70
2023/12/29 04:52:52;;;;;;;15.80;13.50;;;11.10;96.70;;;;;;4860809;29;20112;-69
2023/12/29 04:59:28;;;;;;;14.75;12.77;;;11.10;96.70;;;;;;4870129;29;20115;-69
2023/12/29 05:11:07;;;;;;;16.02;14.13;;;11.10;96.70;;;;;;4777183;29;20656;-69
2023/12/29 05:19:00;;;;;;;17.70;14.52;;;11.10;96.70;;;;;;4751429;30;20047;-69
2023/12/29 05:21:26;;;;;;;16.88;14.85;;;11.10;96.70;;;;;;4762006;30;20067;-69
2023/12/29 05:23:56;;;;;;;18.35;14.90;;;11.10;96.70;;;;;;4747100;30;20191;-69
2023/12/29 05:26:25;;;;;;;17.33;15.07;;;11.00;96.70;;;;;;4762363;30;20066;-70
2023/12/29 05:29:07;;;;;;;18.50;15.57;;;11.10;96.70;;;;;;4749291;30;20058;-69
2023/12/29 05:31:43;;;;;;;15.98;13.80;;;11.10;96.70;;;;;;4761378;30;20067;-69
2023/12/29 05:34:18;;;;;;;15.32;13.57;;;11.10;96.70;;;;;;4761547;30;20428;-70
2023/12/29 05:40:44;;;;;;;17.52;15.65;;;11.10;96.70;;;;;;4856056;29;20053;-69
2023/12/29 05:43:16;;;;;;;19.08;14.75;;;11.10;96.70;;;;;;4848630;29;20061;-69
2023/12/29 05:45:52;;;;;;;18.88;15.27;;;11.10;96.70;;;;;;4856592;29;20068;-69
2023/12/29 05:49:21;;;;;;;21.00;17.00;;;11.10;96.70;;;;;;4842933;29;20060;-69
2023/12/29 05:52:06;;;;;;;19.60;15.50;;;11.20;96.70;;;;;;4869206;29;20055;-69
2023/12/29 05:54:39;;;;;;;16.40;14.65;;;11.20;96.70;;;;;;4872324;29;20061;-69
2023/12/29 05:57:08;;;;;;;19.88;16.40;;;11.20;96.70;;;;;;4872336;29;20065;-70
2023/12/29 05:59:40;;;;;;;19.65;15.88;;;11.20;96.70;;;;;;4866591;29;20060;-69
2023/12/29 06:02:22;;;;;;;16.58;14.23;;;11.20;96.70;;;;;;4843928;29;20061;-69
2023/12/29 06:04:52;;;;;;;16.42;13.63;;;11.20;96.70;;;;;;4857476;29;20112;-70
2023/12/29 06:07:23;;;;;;;14.77;12.32;;;11.20;96.70;;;;;;4866020;29;20064;-69
2023/12/29 06:10:14;;;;;;;;;;;;;;;;;;;;;
2023/12/29 06:12:53;;;;;;;13.57;12.18;;;11.10;96.70;;;;;;4856845;29;20069;-69
2023/12/29 06:15:39;;;;;;;;;;;;;;;;;;;;;
2023/12/29 06:18:40;;;;;;;;;;;;;;;;;;;;;
2023/12/29 06:21:19;;;;;;;15.38;13.00;;;11.20;96.70;;;;;;4861615;29;19928;-69
2023/12/29 06:24:58;;;;;;;15.73;13.95;;;11.20;96.70;;;;;;4872307;29;20056;-69
2023/12/29 06:27:51;;;;;;;15.98;13.38;;;11.20;96.70;;;;;;4839275;29;20064;-69
2023/12/29 06:30:26;;;;;;;16.77;14.30;;;11.20;96.70;;;;;;4863770;29;20064;-70
2023/12/29 06:33:35;;;;;;;17.30;14.32;;;11.20;96.70;;;;;;4858966;29;20056;-69
2023/12/29 06:36:12;;;;;;;18.65;14.77;;;11.20;96.70;;;;;;4868498;29;20069;-70
2023/12/29 06:38:41;;;;;;;19.15;16.85;;;11.20;96.70;;;;;;4849055;29;20065;-69
2023/12/29 06:41:11;;;;;;;20.13;15.48;;;11.20;96.70;;;;;;4856314;29;20057;-69
2023/12/29 06:43:43;;;;;;;17.55;15.73;;;11.20;96.70;;;;;;4856586;29;20080;-68
2023/12/29 06:46:17;;;;;;;21.33;15.43;;;11.20;96.70;;;;;;4873744;29;20060;-69
2023/12/29 06:48:50;;;;;;;18.15;15.27;;;11.20;96.70;;;;;;4845496;29;20542;-69
2023/12/29 06:51:27;;;;;;;15.80;14.20;;;11.20;96.70;;;;;;4870174;29;20086;-69
2023/12/29 06:54:26;;;;;;;18.33;13.90;;;11.20;96.70;;;;;;4859522;29;20052;-69
2023/12/29 06:56:58;;;;;;;17.75;14.30;;;11.20;96.70;;;;;;4862798;29;20057;-69
2023/12/29 06:59:29;;;;;;;18.73;14.30;;;11.20;96.70;;;;;;4852110;29;20057;-69
2023/12/29 07:02:13;;;;;;;15.95;13.25;;;11.20;96.70;;;;;;4860437;29;20684;-69
2023/12/29 07:05:52;;;;;;;17.27;13.65;;;11.20;96.70;;;;;;4856842;29;20052;-69
2023/12/29 07:08:34;;;;;;;15.57;12.88;;;11.20;96.70;;;;;;4858007;29;20102;-69
2023/12/29 07:11:11;;;;;;;14.88;12.52;;;11.20;96.70;;;;;;4856502;29;20178;-70
2023/12/29 07:14:25;;;;;;;14.68;12.35;;;11.20;96.70;;;;;;4872853;29;20741;-69
2023/12/29 07:16:56;;;;;;;13.70;12.30;;;11.20;96.70;;;;;;4863489;29;20095;-70
2023/12/29 07:19:36;;;;;;;15.50;12.60;;;11.20;96.70;;;;;;4875216;29;20056;-70
2023/12/29 07:22:28;;;;;;;14.82;13.00;;;11.20;96.70;;;;;;4873274;29;20061;-69
2023/12/29 07:25:01;;;;;;;14.55;12.52;;;11.20;96.70;;;;;;4874635;29;20052;-70
2023/12/29 07:27:30;;;;;;;14.52;11.98;;;11.20;96.70;;;;;;4859358;29;20064;-70
2023/12/29 07:30:01;;;;;;;14.82;12.88;;;11.20;96.70;;;;;;4888535;29;20128;-69
2023/12/29 07:32:34;;;;;;;15.85;12.75;;;11.20;96.70;;;;;;4874637;29;20426;-69
2023/12/29 07:35:48;;;;;;;16.83;13.38;;;11.20;96.70;;;;;;4889896;29;20106;-69
2023/12/29 07:38:17;;;;;;;16.42;14.75;;;11.20;96.70;;;;;;4888740;29;20203;-69
2023/12/29 07:45:12;;;;;;;14.68;12.95;;;11.20;96.70;;;;;;4837899;29;20076;-69
2023/12/29 07:47:52;;;;;;;14.57;12.80;;;11.20;96.70;;;;;;4831859;29;20064;-70
2023/12/29 07:50:45;;;;;;;16.13;12.65;;;11.20;96.70;;;;;;4833494;29;20070;-69
2023/12/29 07:53:14;;;;;;;16.13;13.55;;;11.20;96.70;;;;;;4829764;29;20532;-69
2023/12/29 07:55:49;;;;;;;14.68;12.35;;;11.20;96.70;;;;;;4848127;29;20492;-69
2023/12/29 07:58:17;;;;;;;14.27;12.75;;;11.20;96.70;;;;;;4832199;29;20061;-69
2023/12/29 08:01:01;;;;;;;16.13;12.98;;;11.30;96.70;;;;;;4832177;29;20601;-69
2023/12/29 08:03:32;;;;;;;15.98;12.85;;;11.30;96.70;;;;;;4823315;29;20057;-69
2023/12/29 08:06:24;;;;;;;14.18;12.27;;;11.30;96.70;;;;;;4864111;29;20426;-69
2023/12/29 08:08:54;;;;;;;12.52;11.18;;;11.30;96.70;;;;;;4868849;29;20060;-69
2023/12/29 08:11:29;;;;;;;12.88;10.90;;;11.30;96.70;;;;;;4873614;29;20818;-69
2023/12/29 08:13:58;;;;;;;14.25;11.93;;;11.30;96.70;;;;;;4873713;29;20057;-69
2023/12/29 08:16:30;;;;;;;12.52;11.07;;;11.30;96.70;;;;;;4858650;29;20426;-69
2023/12/29 08:19:00;;;;;;;11.63;10.43;;;11.30;96.70;;;;;;4853670;29;20068;-69
2023/12/29 08:21:29;;;;;;;12.25;10.35;;;11.30;96.70;;;;;;4864924;29;20516;-69
2023/12/29 08:23:58;;;;;;;11.32;10.13;;;11.30;96.70;;;;;;4867259;29;20719;-68
2023/12/29 08:26:45;;;;;;;10.85;9.70;;;11.20;96.70;;;;;;4870952;29;20518;-69
2023/12/29 08:29:14;;;;;;;;;;;11.20;96.70;;;;;;4857966;29;20611;-69
2023/12/29 08:31:58;;;;;;;11.90;9.02;;;11.30;96.70;;;;;;4859131;29;19927;-69
2023/12/29 08:34:38;;;;;;;9.93;8.95;;;11.30;96.70;;;;;;4866143;29;20621;-69
2023/12/29 08:37:07;;;;;;;9.75;8.40;;;11.30;96.70;;;;;;4860749;29;20061;-69
2023/12/29 08:39:36;;;;;;;26.73;21.25;;;11.30;96.70;;;;;;4867817;29;20060;-69
2023/12/29 08:42:07;;;;;;;23.88;18.27;;;11.30;96.70;;;;;;4840629;29;20061;-69
2023/12/29 08:44:39;;;;;;;12.68;10.93;;;11.30;96.70;;;;;;4886259;29;20056;-70
2023/12/29 08:47:17;;;;;;;13.68;11.93;;;11.30;96.70;;;;;;4841362;29;20076;-70
2023/12/29 08:50:24;;;;;;;;;;;;;;;;;;;;;
2023/12/29 08:54:31;;;;;;;11.32;9.55;;;11.30;96.70;;;;;;4887007;29;20068;-70
2023/12/29 08:57:11;;;;;;;14.18;9.95;;;11.40;96.70;;;;;;4861303;29;20526;-71
2023/12/29 09:00:01;;;;;;;12.48;9.63;;;11.40;96.70;;;;;;4887177;29;20434;-70
2023/12/29 09:10:18;;;;;;;;;;;;;;;;;;;;;
2023/12/29 09:12:52;;;;;;;13.10;9.80;;;11.50;96.70;;;;;;4853940;29;20660;-69
2023/12/29 09:15:37;;;;;;;11.45;9.63;;;11.50;96.70;;;;;;4857281;29;20798;-70
2023/12/29 09:18:12;;;;;;;10.90;9.80;;;11.50;96.70;;;;;;4861913;29;20479;-70
2023/12/29 09:20:41;;;;;;;10.63;9.23;;;11.50;96.70;;;;;;4857797;29;20080;-70
2023/12/29 09:23:11;;;;;;;10.95;9.80;;;11.50;96.70;;;;;;4854861;29;20749;-70
2023/12/29 09:25:50;;;;;;;12.68;10.38;;;11.50;96.70;;;;;;4856766;29;20094;-69
2023/12/29 09:28:21;;;;;;;12.27;10.55;;;11.50;96.70;;;;;;4854780;29;20092;-70
2023/12/29 09:30:49;;;;;;;13.00;11.07;;;11.60;96.70;;;;;;4869308;29;20065;-70
2023/12/29 09:33:53;;;;;;;12.25;10.85;;;11.50;96.70;;;;;;4843241;29;20100;-69
2023/12/29 09:36:14;;;;;;;12.60;11.32;;;11.50;96.70;;;;;;4875517;29;20445;-69
2023/12/29 09:39:25;;;;;;;12.90;11.32;;;11.60;96.70;;;;;;4834940;29;20053;-70
2023/12/29 09:42:01;;;;;;;13.23;11.40;;;11.50;96.70;;;;;;4820831;29;20089;-70
2023/12/29 09:44:35;;;;;;;16.15;12.00;;;11.50;96.70;;;;;;4820295;29;20511;-70
2023/12/29 09:47:11;;;;;;;14.60;12.88;;;11.50;96.70;;;;;;4806370;29;20779;-70
2023/12/29 09:49:46;;;;;;;14.63;13.10;;;11.50;96.70;;;;;;4837975;29;20064;-69
2023/12/29 09:52:20;;;;;;;15.95;12.43;;;11.50;96.70;;;;;;4809609;29;20539;-69
2023/12/29 09:54:54;;;;;;;17.02;14.52;;;11.50;96.70;;;;;;4837388;29;20065;-69
2023/12/29 09:57:24;;;;;;;16.30;14.57;;;11.60;96.70;;;;;;4823203;29;20579;-69
2023/12/29 09:59:55;;;;;;;17.17;15.35;;;11.60;96.70;;;;;;4834707;29;20065;-69
2023/12/29 10:02:29;;;;;;;16.27;14.65;;;11.60;96.70;;;;;;4823334;29;20924;-69
2023/12/29 10:05:03;;;;;;;20.02;16.38;;;11.60;96.70;;;;;;4828693;29;20086;-70
2023/12/29 10:07:39;;;;;;;18.15;16.27;;;11.60;96.70;;;;;;4827108;29;20126;-70
2023/12/29 10:10:25;;;;;;;51.78;42.40;;;11.70;96.70;;;;;;4839985;29;20057;-70
2023/12/29 10:12:57;;;;;;;20.42;17.77;;;11.70;96.70;;;;;;4813752;29;20061;-70
2023/12/29 10:15:35;;;;;;;20.80;15.15;;;11.70;96.70;;;;;;4811906;29;20148;-70
2023/12/29 10:18:46;;;;;;;20.27;16.42;;;11.80;96.70;;;;;;4825111;29;20055;-70
2023/12/29 10:21:23;;;;;;;21.80;16.25;;;11.80;96.70;;;;;;4860910;29;20446;-70
2023/12/29 10:24:05;;;;;;;20.02;16.98;;;11.80;96.70;;;;;;4874060;29;20533;-70
2023/12/29 10:26:39;;;;;;;21.05;18.83;;;11.80;96.70;;;;;;4866602;29;20072;-70
2023/12/29 10:29:12;;;;;;;22.08;18.73;;;11.80;96.70;;;;;;4858542;29;20065;-70
2023/12/29 10:31:47;;;;;;;24.33;20.95;;;11.90;96.70;;;;;;4865778;29;20684;-68
2023/12/29 10:34:20;;;;;;;24.40;21.05;;;11.90;96.70;;;;;;4859791;29;20056;-69
2023/12/29 10:36:52;;;;;;;22.88;20.48;;;11.90;96.70;;;;;;4857757;29;20142;-70
2023/12/29 10:39:40;;;;;;;22.73;20.33;;;12.00;96.70;;;;;;4856348;29;20514;-70
2023/12/29 10:42:20;;;;;;;21.65;19.30;;;11.90;96.70;;;;;;4860459;29;20478;-70
2023/12/29 10:45:05;;;;;;;20.95;18.45;;;12.00;96.70;;;;;;4865105;29;20057;-70
2023/12/29 10:48:09;;;;;;;20.15;18.02;;;12.00;96.70;;;;;;4874234;29;20149;-70
2023/12/29 10:51:37;;;;;;;18.80;16.60;;;12.10;96.70;;;;;;4842545;29;20134;-69
2023/12/29 10:54:15;;;;;;;19.70;17.55;;;12.10;96.70;;;;;;4857061;29;20496;-69
2023/12/29 10:56:46;;;;;;;19.05;16.38;;;12.00;96.70;;;;;;4857761;29;20061;-70
2023/12/29 10:59:16;;;;;;;19.70;16.63;;;12.10;96.70;;;;;;4849940;29;20538;-69
2023/12/29 11:01:49;;;;;;;19.08;16.98;;;12.10;96.70;;;;;;4865175;29;20064;-70
2023/12/29 11:04:41;;;;;;;21.38;17.13;;;12.20;96.70;;;;;;4848257;29;20057;-69
2023/12/29 11:07:21;;;;;;;18.10;16.00;;;12.20;96.70;;;;;;4835477;29;20053;-69
2023/12/29 11:10:30;;;;;;;19.50;16.10;;;12.20;96.70;;;;;;4872022;29;20061;-69
2023/12/29 11:12:59;;;;;;;19.52;16.77;;;12.10;96.70;;;;;;4849506;29;20056;-70
2023/12/29 11:15:30;;;;;;;16.77;15.07;;;12.10;96.70;;;;;;4864442;29;20095;-70
2023/12/29 11:18:23;;;;;;;16.23;14.52;;;12.10;96.70;;;;;;4872687;29;20075;-70
2023/12/29 11:20:53;;;;;;;17.17;14.43;;;12.10;96.70;;;;;;4874420;29;20067;-70
2023/12/29 11:23:21;;;;;;;20.90;18.15;;;12.10;96.70;;;;;;4873984;29;20574;-70
2023/12/29 11:25:50;;;;;;;17.65;15.73;;;12.20;96.70;;;;;;4874729;29;20061;-70
2023/12/29 11:28:40;;;;;;;15.90;14.32;;;12.20;96.70;;;;;;4890220;29;20418;-70
2023/12/29 11:31:11;;;;;;;14.98;13.43;;;12.20;96.70;;;;;;4887458;29;20496;-70
2023/12/29 11:33:46;;;;;;;16.20;14.60;;;12.20;96.70;;;;;;4873638;29;20160;-70
2023/12/29 11:37:12;;;;;;;16.80;15.05;;;12.20;96.70;;;;;;4873973;29;20081;-69
2023/12/29 11:47:56;;;;;;;20.63;18.42;;;12.20;96.70;;;;;;4849375;29;20054;-69
2023/12/29 11:58:00;;;;;;;17.60;15.73;;;12.10;96.70;;;;;;4852473;29;20103;-69
2023/12/29 12:01:05;;;;;;;17.10;15.30;;;12.10;96.70;;;;;;4847920;29;20061;-69
2023/12/29 12:05:09;;;;;;;16.17;14.45;;;12.10;96.70;;;;;;4821728;29;20709;-69
2023/12/29 12:08:08;;;;;;;16.90;15.07;;;12.20;96.70;;;;;;4845877;29;20053;-68
2023/12/29 12:10:41;;;;;;;17.13;15.35;;;12.20;96.70;;;;;;4836410;29;20295;-69
2023/12/29 12:13:11;;;;;;;17.15;15.45;;;12.20;96.70;;;;;;4846741;29;20069;-69
2023/12/29 12:15:49;;;;;;;19.55;17.50;;;12.20;96.70;;;;;;4836303;29;20080;-69
2023/12/29 12:22:10;;;;;;;19.05;17.02;;;12.20;96.70;;;;;;4822387;29;20088;-69
2023/12/29 12:24:48;;;;;;;19.00;17.00;;;12.20;96.70;;;;;;4792370;29;20149;-69
2023/12/29 12:31:06;;;;;;;19.58;17.58;;;12.20;96.70;;;;;;4796270;29;20162;-69
2023/12/29 12:34:14;;;;;;;18.48;16.52;;;12.20;96.70;;;;;;4747622;30;20071;-69
2023/12/29 12:36:52;;;;;;;20.50;18.30;;;12.20;96.70;;;;;;4748648;30;20133;-69
2023/12/29 12:39:25;;;;;;;20.35;18.15;;;12.30;96.70;;;;;;4752279;30;20420;-69
2023/12/29 12:41:58;;;;;;;20.10;17.95;;;12.20;96.70;;;;;;4742759;30;20059;-69
2023/12/29 12:45:05;;;;;;;19.80;16.88;;;12.30;96.70;;;;;;4736253;30;20175;-69
2023/12/29 12:51:53;;;;;;;20.33;18.15;;;12.30;96.70;;;;;;4749759;30;20515;-69
2023/12/29 12:54:32;;;;;;;22.25;18.52;;;12.40;96.70;;;;;;4750506;30;20074;-69
2023/12/29 13:01:08;;;;;;;19.63;17.60;;;12.40;96.70;;;;;;4687712;30;20073;-71
2023/12/29 13:03:38;;;;;;;20.58;18.45;;;12.40;96.70;;;;;;4683885;30;20152;-71
2023/12/29 13:06:08;;;;;;;20.80;18.65;;;12.30;96.70;;;;;;4733736;30;20060;-71
2023/12/29 13:08:37;;;;;;;23.10;19.15;;;12.30;96.70;;;;;;4737587;30;20068;-71
2023/12/29 13:11:15;;;;;;;19.50;17.33;;;12.30;96.70;;;;;;4746265;30;20067;-71
2023/12/29 13:13:45;;;;;;;18.88;16.95;;;12.30;96.70;;;;;;4746821;30;20064;-71
2023/12/29 13:16:15;;;;;;;17.80;15.95;;;12.30;96.70;;;;;;4739484;30;20154;-71
2023/12/29 13:18:46;;;;;;;18.80;16.85;;;12.30;96.70;;;;;;4745908;30;20064;-72
2023/12/29 13:21:18;;;;;;;19.23;16.73;;;12.30;96.70;;;;;;4746751;30;20176;-68
2023/12/29 13:23:48;;;;;;;18.25;16.20;;;12.30;96.70;;;;;;4731414;30;20549;-68
2023/12/29 13:26:30;;;;;;;17.38;15.63;;;12.40;96.70;;;;;;4740473;30;20059;-69
2023/12/29 13:29:45;;;;;;;19.92;16.63;;;12.40;96.70;;;;;;4748457;30;20068;-69
2023/12/29 13:32:53;;;;;;;17.67;15.82;;;12.40;96.70;;;;;;4751539;30;20093;-69
2023/12/29 13:36:12;;;;;;;22.50;17.73;;;12.40;96.70;;;;;;4741731;29;20113;-69
2023/12/29 13:44:08;;;;;;;19.77;17.75;;;12.50;96.70;;;;;;4851750;29;20090;-70
2023/12/29 13:46:40;;;;;;;19.70;17.63;;;12.70;96.70;;;;;;4894984;29;20052;-69
2023/12/29 13:49:16;;;;;;;19.50;17.40;;;12.70;96.70;;;;;;4909485;29;20056;-69
2023/12/29 13:51:46;;;;;;;20.17;18.08;;;12.80;96.70;;;;;;4894439;29;20060;-69
2023/12/29 13:54:21;;;;;;;17.98;15.50;;;12.80;96.70;;;;;;4909802;29;20054;-69
2023/12/29 13:57:07;;;;;;;17.50;15.40;;;12.80;96.70;;;;;;4880254;29;20075;-68
2023/12/29 13:59:37;;;;;;;18.77;16.85;;;12.80;96.70;;;;;;4884577;29;20060;-69
2023/12/29 14:02:58;;;;;;;20.40;17.08;;;12.80;96.70;;;;;;4889721;29;20175;-69
2023/12/29 14:06:00;;;;;;;17.15;15.48;;;12.80;96.70;;;;;;4859945;29;20061;-69
2023/12/29 14:09:22;;;;;;;16.85;15.07;;;12.80;96.70;;;;;;4895622;29;20078;-69
2023/12/29 14:11:59;;;;;;;16.80;14.45;;;12.80;96.70;;;;;;4884956;29;20156;-69
2023/12/29 14:14:27;;;;;;;17.17;15.35;;;12.90;96.70;;;;;;4866715;29;20068;-69
2023/12/29 14:20:56;;;;;;;18.17;14.53;;;12.90;96.70;;;;;;4878902;29;20090;-68
2023/12/29 14:23:42;;;;;;;16.65;14.85;;;12.80;96.70;;;;;;4897451;29;20375;-69
2023/12/29 14:26:48;;;;;;;17.45;14.48;;;12.80;96.70;;;;;;4854161;29;20051;-69
2023/12/29 14:29:19;;;;;;;16.92;15.13;;;12.80;96.70;;;;;;4895023;29;20098;-69
2023/12/29 14:31:53;;;;;;;16.38;14.57;;;12.80;96.70;;;;;;4894424;29;20543;-69
2023/12/29 14:34:22;;;;;;;16.40;14.02;;;12.80;96.70;;;;;;4909117;29;20060;-69
2023/12/29 14:36:51;;;;;;;16.13;14.30;;;12.80;96.70;;;;;;4908966;29;20071;-69
2023/12/29 14:39:23;;;;;;;16.80;14.85;;;12.80;96.70;;;;;;4901911;29;20221;-69
2023/12/29 14:42:28;;;;;;;16.98;15.27;;;12.80;96.70;;;;;;4884377;29;20076;-69
2023/12/29 14:44:59;;;;;;;17.88;14.48;;;12.80;96.70;;;;;;4880720;29;20074;-69
2023/12/29 14:52:11;;;;;;;15.23;13.63;;;12.80;96.70;;;;;;4888855;29;20060;-69
2023/12/29 14:54:45;;;;;;;15.85;13.73;;;12.70;96.70;;;;;;4909856;29;20067;-68
2023/12/29 15:02:07;;;;;;;;;;;;;;;;;;;;;
2023/12/29 15:05:30;;;;;;;17.50;14.02;;;12.70;96.70;;;;;;4835353;29;20197;-69
2023/12/29 15:09:01;;;;;;;15.40;12.65;;;12.60;96.70;;;;;;4869764;29;20067;-69
2023/12/29 15:11:38;;;;;;;17.52;12.73;;;12.60;96.70;;;;;;4884198;29;20064;-69
2023/12/29 15:17:25;;;;;;;19.13;14.55;;;12.60;96.70;;;;;;4850556;29;20069;-69
2023/12/29 15:20:15;;;;;;;19.58;15.63;;;12.50;96.70;;;;;;4820781;29;20220;-69
2023/12/29 15:23:05;;;;;;;;;;;;;;;;;;;;;
2023/12/29 15:26:07;;;;;;;31.80;21.67;;;12.40;96.70;;;;;;4848837;29;20061;-69
2023/12/29 15:28:55;;;;;;;19.90;16.42;;;12.40;96.70;;;;;;4850647;29;20101;-68